Terminal Aerodrome Forecast
Issued by NWS Austin/San Antonio, TX

Current Version | Previous Version | Text Only | Print | Product List | Glossary Off
Versions: 1 2 3 4 5 6 7 8 9 10 11 12 13 14 15 16 17 18 19 20 21 22 23 24 25 26 27

017
FTUS44 KEWX 080520
TAFAUS
TAF
KAUS 080520Z 0806/0912 02015KT P6SM BKN015
     FM080700 36015G25KT P6SM BKN015
     FM081200 36020G30KT P6SM OVC020
     FM090000 01015KT P6SM OVC050
     FM090900 36008KT P6SM OVC100=

USA.gov is the U.S. government's official web portal to all federal, state and local government web resources and services.